Time;durP1;ratioP1;P1;durP2;ratioP2;P2;SDS_P1;SDS_P2;PMS_P1;PMS_P2;Temp;Humidity;BMP_temperature;BMP_pressure;BME280_temperature;BME280_humidity;BME280_pressure;Samples;Min_cycle;Max_cycle;Signal;HPM_P1;HPM_P2
2021/09/24 00:00:18;;;;;;;0.33;0.33;;;;;;;;;;4969933;28;20085;-94
2021/09/24 00:02:44;;;;;;;0.65;0.65;;;;;;;;;;4969597;28;20282;-93
2021/09/24 00:05:10;;;;;;;1.03;0.30;;;;;;;;;;4970970;28;20038;-94
2021/09/24 00:07:36;;;;;;;0.10;0.10;;;;;;;;;;4969697;28;20030;-93
2021/09/24 00:10:04;;;;;;;0.30;0.20;;;;;;;;;;4953884;28;20039;-95
2021/09/24 00:12:30;;;;;;;0.17;0.17;;;;;;;;;;4971913;28;20043;-95
2021/09/24 00:14:56;;;;;;;0.13;0.13;;;;;;;;;;4961214;28;20030;-96
2021/09/24 00:17:22;;;;;;;0.65;0.63;;;;;;;;;;4971766;28;20027;-94
2021/09/24 00:19:48;;;;;;;0.22;0.22;;;;;;;;;;4969606;28;20057;-95
2021/09/24 00:22:14;;;;;;;0.40;0.10;;;;;;;;;;4956764;28;20026;-94
2021/09/24 00:24:40;;;;;;;0.43;0.43;;;;;;;;;;4971104;28;20030;-95
2021/09/24 00:27:06;;;;;;;0.27;0.27;;;;;;;;;;4965483;28;20571;-91
2021/09/24 00:29:32;;;;;;;0.30;0.30;;;;;;;;;;4969855;28;20278;-92
2021/09/24 00:31:58;;;;;;;0.67;0.67;;;;;;;;;;4970636;28;20034;-91
2021/09/24 00:34:24;;;;;;;0.10;0.10;;;;;;;;;;4967007;28;20644;-92
2021/09/24 00:36:50;;;;;;;1.03;0.40;;;;;;;;;;4966113;28;20078;-95
2021/09/24 00:39:16;;;;;;;0.10;0.10;;;;;;;;;;4972267;28;20886;-96
2021/09/24 00:41:42;;;;;;;0.15;0.15;;;;;;;;;;4968286;28;20027;-96
2021/09/24 00:44:09;;;;;;;0.63;0.63;;;;;;;;;;4968598;28;20030;-93
2021/09/24 00:46:35;;;;;;;0.10;0.10;;;;;;;;;;4954509;28;20042;-93
2021/09/24 00:49:01;;;;;;;0.53;0.53;;;;;;;;;;4970240;28;20118;-93
2021/09/24 00:51:27;;;;;;;0.60;0.57;;;;;;;;;;4971598;28;20113;-92
2021/09/24 00:53:53;;;;;;;0.63;0.40;;;;;;;;;;4969061;28;20122;-94
2021/09/24 00:56:19;;;;;;;0.60;0.60;;;;;;;;;;4972629;28;20019;-92
2021/09/24 00:58:45;;;;;;;0.10;0.10;;;;;;;;;;4953949;28;20384;-93
2021/09/24 01:01:11;;;;;;;0.53;0.53;;;;;;;;;;4962427;28;20127;-93
2021/09/24 01:03:37;;;;;;;1.40;0.73;;;;;;;;;;4959113;28;20050;-91
2021/09/24 01:06:03;;;;;;;0.30;0.30;;;;;;;;;;4970196;28;20031;-94
2021/09/24 01:08:31;;;;;;;0.37;0.37;;;;;;;;;;4970827;28;20266;-93
2021/09/24 01:10:57;;;;;;;0.15;0.15;;;;;;;;;;4970321;28;20289;-93
2021/09/24 01:13:23;;;;;;;0.10;0.10;;;;;;;;;;4967037;28;20026;-93
2021/09/24 01:15:49;;;;;;;2.50;1.33;;;;;;;;;;4969787;28;20102;-93
2021/09/24 01:18:16;;;;;;;0.30;0.30;;;;;;;;;;4969161;28;20125;-94
2021/09/24 01:20:42;;;;;;;0.10;0.10;;;;;;;;;;4951635;28;20306;-94
2021/09/24 01:23:08;;;;;;;0.22;0.22;;;;;;;;;;4970802;28;20274;-93
2021/09/24 01:25:34;;;;;;;0.20;0.20;;;;;;;;;;4970332;28;20642;-92
2021/09/24 01:28:00;;;;;;;2.70;0.53;;;;;;;;;;4970231;28;20030;-93
2021/09/24 01:30:26;;;;;;;0.50;0.40;;;;;;;;;;4970956;28;20280;-93
2021/09/24 01:32:53;;;;;;;0.15;0.15;;;;;;;;;;4966069;28;20073;-93
2021/09/24 01:35:19;;;;;;;0.20;0.20;;;;;;;;;;4970731;28;20035;-92
2021/09/24 01:37:46;;;;;;;0.20;0.20;;;;;;;;;;4972208;28;20081;-93
2021/09/24 01:40:14;;;;;;;0.13;0.13;;;;;;;;;;4955509;28;20503;-93
2021/09/24 01:42:40;;;;;;;0.10;0.10;;;;;;;;;;4967967;28;20452;-93
2021/09/24 01:45:06;;;;;;;0.13;0.13;;;;;;;;;;4966607;28;20062;-91
2021/09/24 01:47:32;;;;;;;0.57;0.57;;;;;;;;;;4969678;28;20022;-93
2021/09/24 01:49:58;;;;;;;0.10;0.10;;;;;;;;;;4969670;28;20038;-92
2021/09/24 01:52:24;;;;;;;0.10;0.10;;;;;;;;;;4953184;28;20507;-94
2021/09/24 01:54:50;;;;;;;0.40;0.40;;;;;;;;;;4968186;28;20106;-93
2021/09/24 01:57:16;;;;;;;0.30;0.30;;;;;;;;;;4968090;28;20030;-94
2021/09/24 01:59:42;;;;;;;0.50;0.20;;;;;;;;;;4966809;28;20043;-94
2021/09/24 02:02:08;;;;;;;0.20;0.20;;;;;;;;;;4968024;28;20070;-93
2021/09/24 02:04:34;;;;;;;0.32;0.32;;;;;;;;;;4968371;28;20027;-93
2021/09/24 02:07:00;;;;;;;1.93;0.50;;;;;;;;;;4969562;28;20027;-93
2021/09/24 02:09:26;;;;;;;0.20;0.20;;;;;;;;;;4967913;28;20567;-94
2021/09/24 02:11:52;;;;;;;0.10;0.10;;;;;;;;;;4968778;28;20538;-93
2021/09/24 02:14:18;;;;;;;0.50;0.50;;;;;;;;;;4969687;28;20051;-91
2021/09/24 02:16:45;;;;;;;1.33;0.67;;;;;;;;;;4969613;28;20278;-91
2021/09/24 02:19:11;;;;;;;0.20;0.20;;;;;;;;;;4966454;28;20570;-92
2021/09/24 02:21:37;;;;;;;0.77;0.77;;;;;;;;;;4953334;28;20243;-93
2021/09/24 02:24:03;;;;;;;0.10;0.10;;;;;;;;;;4970455;28;20042;-93
2021/09/24 02:26:29;;;;;;;0.10;0.10;;;;;;;;;;4970971;28;20023;-93
2021/09/24 02:28:55;;;;;;;0.20;0.20;;;;;;;;;;4969819;28;20030;-93
2021/09/24 02:31:21;;;;;;;0.73;0.73;;;;;;;;;;4966223;28;20039;-93
2021/09/24 02:33:47;;;;;;;0.30;0.30;;;;;;;;;;4957348;28;20034;-93
2021/09/24 02:36:13;;;;;;;0.50;0.50;;;;;;;;;;4950542;28;20030;-92
2021/09/24 02:38:40;;;;;;;0.77;0.57;;;;;;;;;;4967991;28;20070;-92
2021/09/24 02:41:06;;;;;;;2.08;0.30;;;;;;;;;;4968981;28;20102;-92
2021/09/24 02:43:33;;;;;;;0.40;0.40;;;;;;;;;;4966100;28;20768;-94
2021/09/24 02:45:59;;;;;;;0.10;0.10;;;;;;;;;;4969588;28;20027;-94
2021/09/24 02:48:25;;;;;;;0.80;0.32;;;;;;;;;;4967722;28;20114;-93
2021/09/24 02:50:51;;;;;;;0.40;0.30;;;;;;;;;;4966241;28;20110;-93
2021/09/24 02:53:17;;;;;;;0.10;0.10;;;;;;;;;;4968630;28;21004;-94
2021/09/24 02:55:43;;;;;;;0.47;0.47;;;;;;;;;;4967841;28;20026;-93
2021/09/24 02:58:09;;;;;;;0.17;0.17;;;;;;;;;;4966581;28;20286;-93
2021/09/24 03:00:35;;;;;;;0.17;0.17;;;;;;;;;;4968227;28;20039;-92
2021/09/24 03:03:02;;;;;;;0.43;0.43;;;;;;;;;;4964966;28;20030;-92
2021/09/24 03:05:28;;;;;;;0.45;0.45;;;;;;;;;;4967752;28;20857;-93
2021/09/24 03:07:54;;;;;;;0.17;0.17;;;;;;;;;;4965698;28;20517;-92
2021/09/24 03:10:20;;;;;;;0.22;0.22;;;;;;;;;;4964376;28;20039;-93
2021/09/24 03:12:46;;;;;;;0.43;0.43;;;;;;;;;;4965150;28;20034;-91
2021/09/24 03:15:13;;;;;;;0.30;0.30;;;;;;;;;;4947576;28;20027;-91
2021/09/24 03:17:39;;;;;;;0.20;0.20;;;;;;;;;;4965102;28;20030;-92
2021/09/24 03:20:06;;;;;;;0.28;0.28;;;;;;;;;;4966876;28;20737;-91
2021/09/24 03:22:32;;;;;;;0.75;0.40;;;;;;;;;;4965689;28;20084;-92
2021/09/24 03:24:58;;;;;;;0.20;0.20;;;;;;;;;;4949333;28;20039;-91
2021/09/24 03:27:24;;;;;;;0.37;0.37;;;;;;;;;;4959847;28;20112;-90
2021/09/24 03:29:51;;;;;;;0.30;0.30;;;;;;;;;;4967718;28;20282;-92
2021/09/24 03:32:19;;;;;;;0.23;0.23;;;;;;;;;;4966335;28;20034;-92
2021/09/24 03:34:46;;;;;;;1.25;0.82;;;;;;;;;;4965332;28;20041;-91
2021/09/24 03:37:12;;;;;;;0.10;0.10;;;;;;;;;;4959800;28;20034;-93
2021/09/24 03:39:38;;;;;;;0.30;0.30;;;;;;;;;;4961934;28;20054;-92
2021/09/24 03:42:04;;;;;;;0.30;0.30;;;;;;;;;;4966531;28;20019;-91
2021/09/24 03:44:31;;;;;;;0.30;0.30;;;;;;;;;;4963958;28;20043;-93
2021/09/24 03:46:57;;;;;;;1.40;0.57;;;;;;;;;;4967480;28;20031;-93
2021/09/24 03:49:23;;;;;;;0.13;0.13;;;;;;;;;;4966484;28;20289;-93
2021/09/24 03:51:50;;;;;;;0.52;0.52;;;;;;;;;;4956845;28;20107;-94
2021/09/24 03:54:16;;;;;;;0.20;0.20;;;;;;;;;;4968159;28;20041;-94
2021/09/24 03:56:43;;;;;;;0.63;0.43;;;;;;;;;;4967832;28;21044;-91
2021/09/24 03:59:10;;;;;;;0.10;0.10;;;;;;;;;;4965444;28;20034;-92
2021/09/24 04:01:36;;;;;;;0.30;0.20;;;;;;;;;;4956769;28;20034;-91
2021/09/24 04:04:02;;;;;;;0.30;0.30;;;;;;;;;;4955573;28;20058;-91
2021/09/24 04:06:28;;;;;;;0.23;0.23;;;;;;;;;;4966698;28;20788;-92
2021/09/24 04:08:54;;;;;;;0.20;0.20;;;;;;;;;;4951364;28;20089;-90
2021/09/24 04:11:20;;;;;;;1.10;1.00;;;;;;;;;;4970248;28;20038;-93
2021/09/24 04:13:46;;;;;;;0.37;0.37;;;;;;;;;;4968242;28;20037;-92
2021/09/24 04:16:12;;;;;;;0.10;0.10;;;;;;;;;;4965022;28;20073;-92
2021/09/24 04:18:38;;;;;;;0.00;0.00;;;;;;;;;;4968259;28;20098;-92
2021/09/24 04:21:04;;;;;;;2.90;0.52;;;;;;;;;;4969837;28;20309;-92
2021/09/24 04:23:30;;;;;;;0.10;0.10;;;;;;;;;;4963003;28;20062;-92
2021/09/24 04:25:56;;;;;;;0.33;0.33;;;;;;;;;;4968894;28;20023;-90
2021/09/24 04:28:22;;;;;;;0.20;0.20;;;;;;;;;;4969409;28;20521;-91
2021/09/24 04:30:48;;;;;;;0.45;0.45;;;;;;;;;;4968474;28;20106;-92
2021/09/24 04:33:14;;;;;;;0.50;0.40;;;;;;;;;;4969301;28;20133;-93
2021/09/24 04:35:40;;;;;;;0.35;0.35;;;;;;;;;;4970351;28;20066;-92
2021/09/24 04:38:06;;;;;;;0.07;0.07;;;;;;;;;;4968709;28;20448;-93
2021/09/24 04:40:32;;;;;;;0.20;0.20;;;;;;;;;;4969829;28;20033;-92
2021/09/24 04:42:58;;;;;;;0.10;0.10;;;;;;;;;;4951792;28;20111;-92
2021/09/24 04:45:25;;;;;;;2.03;0.60;;;;;;;;;;4959876;28;20138;-91
2021/09/24 04:47:51;;;;;;;0.10;0.10;;;;;;;;;;4970434;28;20595;-92
2021/09/24 04:50:17;;;;;;;0.10;0.10;;;;;;;;;;4968971;28;20034;-91
2021/09/24 04:52:43;;;;;;;0.47;0.47;;;;;;;;;;4964524;28;20439;-90
2021/09/24 04:55:09;;;;;;;0.20;0.20;;;;;;;;;;4972199;28;20031;-92
2021/09/24 04:57:36;;;;;;;0.28;0.28;;;;;;;;;;4972275;28;20030;-93
2021/09/24 05:00:02;;;;;;;0.17;0.17;;;;;;;;;;4960111;28;20117;-93
2021/09/24 05:02:28;;;;;;;0.10;0.10;;;;;;;;;;4962160;28;20032;-95
2021/09/24 05:04:54;;;;;;;0.10;0.10;;;;;;;;;;4945629;29;20046;-94
2021/09/24 05:07:20;;;;;;;0.57;0.57;;;;;;;;;;4966778;28;20027;-93
2021/09/24 05:09:46;;;;;;;0.20;0.20;;;;;;;;;;4959097;28;20024;-94
2021/09/24 05:12:12;;;;;;;5.60;1.77;;;;;;;;;;4959086;28;20033;-93
2021/09/24 05:14:38;;;;;;;0.20;0.20;;;;;;;;;;4971400;28;20026;-94
2021/09/24 05:17:04;;;;;;;0.08;0.08;;;;;;;;;;4961015;28;20293;-92
2021/09/24 05:19:30;;;;;;;0.80;0.75;;;;;;;;;;4936395;29;20043;-92
2021/09/24 05:21:57;;;;;;;0.10;0.10;;;;;;;;;;4959667;28;20038;-82
2021/09/24 05:24:23;;;;;;;0.47;0.47;;;;;;;;;;4956150;28;20054;-85
2021/09/24 05:26:49;;;;;;;0.10;0.10;;;;;;;;;;4957110;28;20039;-83
2021/09/24 05:29:15;;;;;;;0.40;0.17;;;;;;;;;;4945603;28;20023;-84
2021/09/24 05:31:41;;;;;;;0.10;0.10;;;;;;;;;;4951890;28;20282;-85
2021/09/24 05:34:07;;;;;;;0.30;0.30;;;;;;;;;;4939087;28;20031;-85
2021/09/24 05:36:33;;;;;;;0.60;0.60;;;;;;;;;;4956487;28;20037;-87
2021/09/24 05:39:00;;;;;;;0.88;0.25;;;;;;;;;;4957961;28;20290;-86
2021/09/24 05:41:26;;;;;;;0.15;0.15;;;;;;;;;;4957206;28;20143;-84
2021/09/24 05:43:52;;;;;;;2.97;1.17;;;;;;;;;;4965429;28;20035;-85
2021/09/24 05:46:18;;;;;;;0.00;0.00;;;;;;;;;;4947545;28;20037;-86
2021/09/24 05:48:44;;;;;;;0.15;0.15;;;;;;;;;;4965728;28;20122;-86
2021/09/24 05:51:10;;;;;;;0.77;0.77;;;;;;;;;;4964865;28;20042;-86
2021/09/24 05:53:37;;;;;;;0.10;0.10;;;;;;;;;;4948736;28;20050;-87
2021/09/24 05:56:03;;;;;;;0.85;0.75;;;;;;;;;;4965159;28;20601;-87
2021/09/24 05:58:29;;;;;;;0.10;0.10;;;;;;;;;;4965064;28;20038;-86
2021/09/24 06:00:55;;;;;;;0.30;0.30;;;;;;;;;;4965216;28;20069;-86
2021/09/24 06:03:22;;;;;;;1.23;0.82;;;;;;;;;;4946355;28;20047;-85
2021/09/24 06:05:48;;;;;;;2.27;0.20;;;;;;;;;;4965459;28;20023;-86
2021/09/24 06:08:14;;;;;;;0.30;0.30;;;;;;;;;;4967369;28;20019;-87
2021/09/24 06:10:41;;;;;;;0.10;0.10;;;;;;;;;;4947039;28;20118;-86
2021/09/24 06:13:07;;;;;;;0.30;0.30;;;;;;;;;;4965796;28;20027;-86
2021/09/24 06:15:33;;;;;;;0.10;0.10;;;;;;;;;;4965010;28;20034;-86
2021/09/24 06:17:59;;;;;;;0.17;0.17;;;;;;;;;;4966155;28;20042;-85
2021/09/24 06:20:26;;;;;;;9.50;0.35;;;;;;;;;;4970790;28;20038;-85
2021/09/24 06:22:52;;;;;;;0.10;0.10;;;;;;;;;;4967369;28;20039;-85
2021/09/24 06:25:18;;;;;;;0.10;0.10;;;;;;;;;;4969994;28;20070;-90
2021/09/24 06:27:44;;;;;;;0.20;0.20;;;;;;;;;;4944850;28;20628;-85
2021/09/24 06:30:12;;;;;;;0.10;0.10;;;;;;;;;;4964680;28;20488;-85
2021/09/24 06:32:38;;;;;;;0.20;0.20;;;;;;;;;;4965235;28;20031;-85
2021/09/24 06:35:05;;;;;;;0.10;0.10;;;;;;;;;;4964895;28;20518;-86
2021/09/24 06:37:31;;;;;;;5.95;1.40;;;;;;;;;;4964096;28;20503;-85
2021/09/24 06:39:57;;;;;;;0.10;0.10;;;;;;;;;;4964067;28;22186;-86
2021/09/24 06:42:23;;;;;;;0.00;0.00;;;;;;;;;;4963647;28;20336;-86
2021/09/24 06:44:49;;;;;;;0.30;0.30;;;;;;;;;;4963973;28;20034;-86
2021/09/24 06:47:18;;;;;;;0.10;0.10;;;;;;;;;;4965526;28;20169;-86
2021/09/24 06:49:44;;;;;;;0.20;0.20;;;;;;;;;;4964143;28;20034;-85
2021/09/24 06:52:10;;;;;;;0.40;0.40;;;;;;;;;;4963329;28;20074;-85
2021/09/24 06:54:36;;;;;;;0.00;0.00;;;;;;;;;;4963911;28;20060;-86
2021/09/24 06:57:03;;;;;;;0.08;0.05;;;;;;;;;;4947977;28;20440;-86
2021/09/24 06:59:29;;;;;;;;;;;;;;;;;;4965836;28;20101;-86
2021/09/24 07:01:56;;;;;;;0.05;0.05;;;;;;;;;;4963276;28;19909;-86
2021/09/24 07:04:22;;;;;;;0.10;0.10;;;;;;;;;;4963464;28;20063;-86
2021/09/24 07:06:51;;;;;;;0.75;0.60;;;;;;;;;;4963242;28;20589;-84
2021/09/24 07:09:17;;;;;;;0.00;0.00;;;;;;;;;;4963406;28;20039;-85
2021/09/24 07:11:48;;;;;;;3.95;0.57;;;;;;;;;;4964067;28;20033;-86
2021/09/24 07:14:14;;;;;;;0.43;0.10;;;;;;;;;;4965255;28;20058;-85
2021/09/24 07:16:40;;;;;;;0.00;0.00;;;;;;;;;;4945534;28;20082;-86
2021/09/24 07:19:06;;;;;;;0.10;0.10;;;;;;;;;;4945772;28;20042;-86
2021/09/24 07:21:33;;;;;;;0.00;0.00;;;;;;;;;;4963544;28;20019;-85
2021/09/24 07:23:59;;;;;;;4.88;0.32;;;;;;;;;;4963260;28;20066;-86
2021/09/24 07:26:27;;;;;;;0.00;0.00;;;;;;;;;;4965354;28;20127;-86
2021/09/24 07:28:53;;;;;;;0.20;0.20;;;;;;;;;;4963251;28;21276;-86
2021/09/24 07:31:19;;;;;;;0.00;0.00;;;;;;;;;;4963083;28;20110;-85
2021/09/24 07:33:45;;;;;;;0.20;0.20;;;;;;;;;;4963302;28;20106;-85
2021/09/24 07:36:11;;;;;;;0.88;0.10;;;;;;;;;;4963128;28;20499;-86
2021/09/24 07:38:37;;;;;;;0.40;0.20;;;;;;;;;;4965124;28;20117;-86
2021/09/24 07:41:03;;;;;;;0.05;0.05;;;;;;;;;;4963132;28;20070;-86
2021/09/24 07:43:29;;;;;;;0.00;0.00;;;;;;;;;;4962834;28;20105;-86
2021/09/24 07:45:56;;;;;;;0.32;0.10;;;;;;;;;;4963065;28;20109;-86
2021/09/24 07:48:23;;;;;;;0.00;0.00;;;;;;;;;;4963094;28;20041;-86
2021/09/24 07:50:48;;;;;;;;;;;;;;;;;;4963767;28;20043;-86
2021/09/24 07:53:15;;;;;;;0.00;0.00;;;;;;;;;;4965027;28;19922;-86
2021/09/24 07:55:41;;;;;;;0.30;0.10;;;;;;;;;;4962642;28;20034;-85
2021/09/24 07:58:08;;;;;;;0.03;0.03;;;;;;;;;;4962810;28;20039;-86
2021/09/24 08:00:36;;;;;;;0.00;0.00;;;;;;;;;;4965064;28;20093;-85
2021/09/24 08:03:03;;;;;;;0.25;0.25;;;;;;;;;;4965352;28;20074;-86
2021/09/24 08:05:29;;;;;;;0.05;0.05;;;;;;;;;;4968562;28;20104;-86
2021/09/24 08:07:55;;;;;;;0.65;0.20;;;;;;;;;;4966765;28;20121;-85
2021/09/24 08:10:21;;;;;;;0.03;0.03;;;;;;;;;;4966974;28;20039;-87
2021/09/24 08:12:47;;;;;;;0.20;0.20;;;;;;;;;;4966074;28;20054;-86
2021/09/24 08:15:13;;;;;;;0.00;0.00;;;;;;;;;;4966781;28;20105;-87
2021/09/24 08:17:39;;;;;;;;;;;;;;;;;;4968401;28;20531;-87
2021/09/24 08:20:06;;;;;;;0.13;0.13;;;;;;;;;;4966775;28;19917;-86
2021/09/24 08:22:37;;;;;;;0.20;0.20;;;;;;;;;;4966425;28;20113;-86
2021/09/24 08:25:04;;;;;;;0.00;0.00;;;;;;;;;;4966337;28;20039;-86
2021/09/24 08:27:30;;;;;;;0.05;0.03;;;;;;;;;;4966347;28;20031;-86
2021/09/24 08:29:56;;;;;;;2.67;0.30;;;;;;;;;;4966482;28;20862;-86
2021/09/24 08:32:23;;;;;;;0.13;0.13;;;;;;;;;;4968569;28;20147;-86
2021/09/24 08:34:49;;;;;;;0.10;0.10;;;;;;;;;;4966614;28;20027;-86
2021/09/24 08:37:15;;;;;;;0.50;0.50;;;;;;;;;;4948790;28;20078;-86
2021/09/24 08:39:41;;;;;;;0.10;0.10;;;;;;;;;;4966033;28;20050;-87
2021/09/24 08:42:07;;;;;;;0.08;0.08;;;;;;;;;;4966685;28;20039;-87
2021/09/24 08:44:33;;;;;;;0.20;0.15;;;;;;;;;;4968763;28;20511;-86
2021/09/24 08:46:59;;;;;;;0.22;0.22;;;;;;;;;;4966654;28;20030;-86
2021/09/24 08:49:25;;;;;;;0.10;0.10;;;;;;;;;;4966389;28;20392;-87
2021/09/24 08:51:51;;;;;;;0.00;0.00;;;;;;;;;;4966145;28;20146;-86
2021/09/24 08:54:17;;;;;;;0.10;0.10;;;;;;;;;;4965983;28;20039;-86
2021/09/24 08:56:43;;;;;;;0.20;0.20;;;;;;;;;;4967128;28;20032;-87
2021/09/24 08:59:09;;;;;;;0.10;0.10;;;;;;;;;;4967699;28;20046;-86
2021/09/24 09:01:35;;;;;;;0.00;0.00;;;;;;;;;;4966343;28;20027;-86
2021/09/24 09:04:01;;;;;;;0.30;0.30;;;;;;;;;;4965971;28;20499;-85
2021/09/24 09:06:30;;;;;;;0.20;0.20;;;;;;;;;;4966471;28;20027;-87
2021/09/24 09:09:06;;;;;;;0.17;0.17;;;;;;;;;;4948918;28;20091;-87
2021/09/24 09:11:32;;;;;;;0.00;0.00;;;;;;;;;;4964179;28;20507;-87
2021/09/24 09:13:59;;;;;;;0.10;0.10;;;;;;;;;;4966395;28;20091;-87
2021/09/24 09:16:28;;;;;;;0.00;0.00;;;;;;;;;;4966345;28;20034;-88
2021/09/24 09:19:24;;;;;;;0.00;0.00;;;;;;;;;;4966510;28;20046;-86
2021/09/24 09:21:50;;;;;;;0.08;0.08;;;;;;;;;;4949198;28;20879;-87
2021/09/24 09:24:19;;;;;;;0.00;0.00;;;;;;;;;;4964998;28;20027;-87
2021/09/24 09:26:45;;;;;;;0.00;0.00;;;;;;;;;;4949498;28;20042;-87
2021/09/24 09:29:11;;;;;;;;;;;;;;;;;;4967963;28;20026;-87
2021/09/24 09:31:38;;;;;;;0.13;0.13;;;;;;;;;;4948379;28;19937;-86
2021/09/24 09:34:06;;;;;;;0.10;0.10;;;;;;;;;;4965841;28;20116;-86
2021/09/24 09:36:34;;;;;;;1.38;0.17;;;;;;;;;;4947425;28;20038;-87
2021/09/24 09:39:07;;;;;;;0.40;0.40;;;;;;;;;;4965918;28;20042;-87
2021/09/24 09:41:33;;;;;;;0.13;0.13;;;;;;;;;;4963577;28;20038;-86
2021/09/24 09:44:00;;;;;;;0.00;0.00;;;;;;;;;;4964327;28;20066;-87
2021/09/24 09:46:31;;;;;;;0.00;0.00;;;;;;;;;;4964894;28;20037;-86
2021/09/24 09:49:05;;;;;;;0.30;0.30;;;;;;;;;;4964247;28;20127;-87
2021/09/24 09:51:32;;;;;;;0.08;0.08;;;;;;;;;;4963615;28;20046;-86
2021/09/24 09:53:58;;;;;;;0.10;0.10;;;;;;;;;;4965190;28;20078;-86
2021/09/24 09:56:35;;;;;;;0.10;0.10;;;;;;;;;;4964713;28;20026;-86
2021/09/24 09:59:01;;;;;;;0.75;0.45;;;;;;;;;;4965264;28;20508;-87
2021/09/24 10:01:27;;;;;;;0.10;0.10;;;;;;;;;;4963914;28;20027;-87
2021/09/24 10:03:54;;;;;;;0.00;0.00;;;;;;;;;;4963984;28;20042;-87
2021/09/24 10:06:24;;;;;;;0.00;0.00;;;;;;;;;;4963615;28;20075;-87
2021/09/24 10:08:54;;;;;;;0.17;0.17;;;;;;;;;;4965070;28;20035;-87
2021/09/24 10:11:28;;;;;;;0.30;0.30;;;;;;;;;;4963859;28;20026;-87
2021/09/24 10:13:57;;;;;;;0.20;0.20;;;;;;;;;;4963970;28;20034;-87
2021/09/24 10:16:46;;;;;;;0.10;0.03;;;;;;;;;;4945894;28;20027;-86
2021/09/24 10:19:13;;;;;;;0.00;0.00;;;;;;;;;;4953403;28;20050;-87
2021/09/24 10:21:39;;;;;;;0.10;0.10;;;;;;;;;;4964089;28;20029;-87
2021/09/24 10:24:06;;;;;;;0.17;0.17;;;;;;;;;;4964144;28;20035;-86
2021/09/24 10:26:35;;;;;;;0.08;0.08;;;;;;;;;;4962011;28;20035;-86
2021/09/24 10:29:03;;;;;;;0.22;0.22;;;;;;;;;;4964652;28;20146;-86
2021/09/24 10:31:34;;;;;;;0.10;0.10;;;;;;;;;;4946790;28;20033;-86
2021/09/24 10:34:01;;;;;;;0.32;0.22;;;;;;;;;;4963995;28;20582;-87
2021/09/24 10:36:37;;;;;;;0.00;0.00;;;;;;;;;;4963937;28;20537;-86
2021/09/24 10:39:04;;;;;;;0.10;0.10;;;;;;;;;;4964301;28;20039;-86
2021/09/24 10:41:30;;;;;;;0.00;0.00;;;;;;;;;;4965918;28;20275;-86
2021/09/24 10:43:59;;;;;;;0.00;0.00;;;;;;;;;;4964230;28;20030;-86
2021/09/24 10:46:25;;;;;;;0.00;0.00;;;;;;;;;;4964543;28;20030;-86
2021/09/24 10:49:09;;;;;;;0.10;0.05;;;;;;;;;;4963471;28;20085;-87
2021/09/24 10:51:40;;;;;;;0.00;0.00;;;;;;;;;;4963785;28;20042;-88
2021/09/24 10:54:17;;;;;;;0.05;0.05;;;;;;;;;;4958462;28;20039;-87
2021/09/24 10:56:58;;;;;;;0.08;0.08;;;;;;;;;;4961232;28;20078;-87
2021/09/24 10:59:29;;;;;;;0.10;0.10;;;;;;;;;;4961203;28;20043;-87
2021/09/24 11:01:55;;;;;;;0.10;0.10;;;;;;;;;;4960714;28;20026;-88
2021/09/24 11:04:40;;;;;;;0.00;0.00;;;;;;;;;;4960509;28;20082;-86
2021/09/24 11:07:06;;;;;;;0.55;0.32;;;;;;;;;;4960835;28;20019;-86
2021/09/24 11:09:32;;;;;;;0.85;0.20;;;;;;;;;;4961255;28;20071;-86
2021/09/24 11:12:02;;;;;;;0.40;0.40;;;;;;;;;;4962628;28;20027;-86
2021/09/24 11:14:28;;;;;;;0.00;0.00;;;;;;;;;;4965733;28;20045;-88
2021/09/24 11:16:55;;;;;;;0.30;0.30;;;;;;;;;;4963193;28;20835;-87
2021/09/24 11:19:21;;;;;;;;;;;;;;;;;;4964020;28;20046;-88
2021/09/24 11:21:50;;;;;;;0.10;0.10;;;;;;;;;;4963387;28;19914;-88
2021/09/24 11:24:29;;;;;;;0.55;0.47;;;;;;;;;;4944357;28;20031;-88
2021/09/24 11:26:56;;;;;;;0.10;0.10;;;;;;;;;;4963553;28;20035;-88
2021/09/24 11:29:23;;;;;;;0.22;0.10;;;;;;;;;;4949398;28;20034;-87
2021/09/24 11:31:49;;;;;;;;;;;;;;;;;;4964070;28;20089;-87
2021/09/24 11:34:35;;;;;;;0.30;0.30;;;;;;;;;;4962825;28;20755;-89
2021/09/24 11:37:03;;;;;;;0.00;0.00;;;;;;;;;;4963134;28;20515;-88
2021/09/24 11:39:29;;;;;;;0.10;0.10;;;;;;;;;;4945327;28;20074;-87
2021/09/24 11:42:09;;;;;;;0.20;0.20;;;;;;;;;;4963376;28;20056;-88
2021/09/24 11:44:35;;;;;;;0.20;0.20;;;;;;;;;;4961852;28;20059;-88
2021/09/24 11:47:13;;;;;;;0.00;0.00;;;;;;;;;;4962946;28;20416;-87
2021/09/24 11:49:58;;;;;;;0.20;0.20;;;;;;;;;;4963418;28;20429;-87
2021/09/24 11:52:25;;;;;;;0.60;0.38;;;;;;;;;;4963522;28;20042;-88
2021/09/24 11:54:51;;;;;;;0.17;0.17;;;;;;;;;;4963550;28;20047;-88
2021/09/24 11:57:18;;;;;;;0.52;0.25;;;;;;;;;;4963581;28;20019;-88
2021/09/24 11:59:44;;;;;;;0.20;0.10;;;;;;;;;;4964413;28;20073;-88
2021/09/24 12:02:21;;;;;;;0.10;0.10;;;;;;;;;;4964323;28;20502;-88
2021/09/24 12:05:00;;;;;;;0.10;0.10;;;;;;;;;;4944594;28;20559;-89
2021/09/24 12:07:26;;;;;;;0.22;0.20;;;;;;;;;;4963613;28;20055;-88
2021/09/24 12:10:03;;;;;;;0.00;0.00;;;;;;;;;;4963786;28;20125;-88
2021/09/24 12:12:30;;;;;;;0.00;0.00;;;;;;;;;;4945642;28;20043;-88
2021/09/24 12:15:01;;;;;;;0.13;0.10;;;;;;;;;;4963810;28;20062;-88
2021/09/24 12:17:28;;;;;;;0.32;0.25;;;;;;;;;;4964935;28;20110;-87
2021/09/24 12:19:54;;;;;;;0.10;0.10;;;;;;;;;;4945634;28;20070;-86
2021/09/24 12:22:20;;;;;;;0.43;0.43;;;;;;;;;;4963067;28;20917;-87
2021/09/24 12:24:47;;;;;;;0.13;0.13;;;;;;;;;;4963335;28;20134;-87
2021/09/24 12:27:33;;;;;;;0.03;0.03;;;;;;;;;;4963485;28;20023;-88
2021/09/24 12:30:16;;;;;;;0.10;0.10;;;;;;;;;;4963373;28;20034;-88
2021/09/24 12:32:42;;;;;;;0.00;0.00;;;;;;;;;;4960154;28;20038;-87
2021/09/24 12:35:08;;;;;;;0.10;0.10;;;;;;;;;;4963865;28;20023;-87
2021/09/24 12:37:42;;;;;;;0.17;0.17;;;;;;;;;;4963291;28;20034;-87
2021/09/24 12:40:10;;;;;;;0.10;0.10;;;;;;;;;;4963150;28;20734;-87
2021/09/24 12:42:37;;;;;;;0.05;0.05;;;;;;;;;;4944009;28;20027;-87
2021/09/24 12:45:05;;;;;;;0.20;0.20;;;;;;;;;;4962932;28;20062;-87
2021/09/24 12:47:32;;;;;;;0.47;0.25;;;;;;;;;;4967610;28;20046;-87
2021/09/24 12:49:59;;;;;;;0.65;0.20;;;;;;;;;;4966846;28;20054;-87
2021/09/24 12:52:27;;;;;;;0.20;0.20;;;;;;;;;;4948025;28;20072;-86
2021/09/24 12:54:53;;;;;;;0.10;0.10;;;;;;;;;;4963452;28;20142;-87
2021/09/24 12:57:20;;;;;;;0.32;0.20;;;;;;;;;;4965267;28;20034;-87
2021/09/24 12:59:46;;;;;;;;;;;;;;;;;;4949118;28;20065;-87
2021/09/24 13:02:13;;;;;;;0.47;0.45;;;;;;;;;;4966335;28;19910;-87
2021/09/24 13:04:39;;;;;;;0.28;0.28;;;;;;;;;;4963862;28;20058;-87
2021/09/24 13:07:05;;;;;;;0.25;0.25;;;;;;;;;;4964734;28;20038;-87
2021/09/24 13:09:32;;;;;;;0.00;0.00;;;;;;;;;;4965317;28;20034;-87
2021/09/24 13:11:58;;;;;;;0.10;0.10;;;;;;;;;;4965019;28;20527;-87
2021/09/24 13:14:24;;;;;;;3.22;1.27;;;;;;;;;;4966939;28;20491;-87
2021/09/24 13:16:50;;;;;;;0.00;0.00;;;;;;;;;;4964646;28;20105;-87
2021/09/24 13:19:17;;;;;;;0.00;0.00;;;;;;;;;;4964802;28;20734;-87
2021/09/24 13:21:43;;;;;;;0.20;0.20;;;;;;;;;;4964843;28;20030;-87
2021/09/24 13:24:09;;;;;;;0.08;0.08;;;;;;;;;;4947138;28;20777;-88
2021/09/24 13:26:35;;;;;;;0.00;0.00;;;;;;;;;;4966584;28;20029;-87
2021/09/24 13:29:01;;;;;;;0.00;0.00;;;;;;;;;;4964025;28;20037;-86
2021/09/24 13:31:27;;;;;;;0.80;0.70;;;;;;;;;;4947043;28;20053;-86
2021/09/24 13:33:53;;;;;;;0.10;0.10;;;;;;;;;;4966140;28;20050;-87
2021/09/24 13:36:20;;;;;;;0.32;0.32;;;;;;;;;;4964462;28;20093;-87
2021/09/24 13:38:46;;;;;;;0.00;0.00;;;;;;;;;;4965470;28;20062;-88
2021/09/24 13:41:12;;;;;;;3.90;0.10;;;;;;;;;;4965732;28;20030;-87
2021/09/24 13:43:38;;;;;;;0.20;0.10;;;;;;;;;;4963726;28;20161;-86
2021/09/24 13:46:04;;;;;;;0.20;0.20;;;;;;;;;;4962432;28;20506;-87
2021/09/24 13:48:30;;;;;;;0.00;0.00;;;;;;;;;;4963978;28;20110;-87
2021/09/24 13:50:56;;;;;;;0.00;0.00;;;;;;;;;;4964570;28;20370;-86
2021/09/24 13:53:22;;;;;;;0.43;0.38;;;;;;;;;;4921340;28;1308108;-87
2021/09/24 13:55:48;;;;;;;0.73;0.22;;;;;;;;;;4965372;28;20029;-87
2021/09/24 13:58:14;;;;;;;0.10;0.10;;;;;;;;;;4945047;28;20034;-87
2021/09/24 14:00:40;;;;;;;0.00;0.00;;;;;;;;;;4964810;28;20047;-87
2021/09/24 14:03:06;;;;;;;0.13;0.10;;;;;;;;;;4964533;28;20086;-87
2021/09/24 14:05:32;;;;;;;0.15;0.15;;;;;;;;;;4967375;28;20027;-87
2021/09/24 14:07:58;;;;;;;0.10;0.10;;;;;;;;;;4965139;28;20035;-87
2021/09/24 14:10:24;;;;;;;0.20;0.10;;;;;;;;;;4965292;28;20033;-86
2021/09/24 14:12:53;;;;;;;0.00;0.00;;;;;;;;;;4964803;28;20058;-88
2021/09/24 14:15:20;;;;;;;0.22;0.22;;;;;;;;;;4965433;28;20042;-88
2021/09/24 14:17:46;;;;;;;0.52;0.35;;;;;;;;;;4965811;28;20042;-87
2021/09/24 14:20:12;;;;;;;0.63;0.30;;;;;;;;;;4965934;28;20053;-87
2021/09/24 14:22:38;;;;;;;;;;;;;;;;;;4965018;28;20035;-87
2021/09/24 14:25:06;;;;;;;0.00;0.00;;;;;;;;;;4965229;28;19914;-87
2021/09/24 14:27:32;;;;;;;0.00;0.00;;;;;;;;;;4964335;28;20148;-87
2021/09/24 14:29:58;;;;;;;0.40;0.40;;;;;;;;;;4964651;28;20842;-87
2021/09/24 14:32:24;;;;;;;0.08;0.08;;;;;;;;;;4966653;28;20125;-87
2021/09/24 14:34:50;;;;;;;0.10;0.10;;;;;;;;;;4964885;28;20048;-87
2021/09/24 14:37:16;;;;;;;0.00;0.00;;;;;;;;;;4965177;28;20122;-88
2021/09/24 14:39:42;;;;;;;0.10;0.10;;;;;;;;;;4964416;28;20098;-87
2021/09/24 14:42:09;;;;;;;0.05;0.05;;;;;;;;;;4963767;28;20750;-88
2021/09/24 14:44:35;;;;;;;0.20;0.10;;;;;;;;;;4948819;28;20138;-87